SBGO

Details ICAO SBGO (GYN)
Name Santo Genoveva
Region Brazil
Timezone America/Sao_Paulo (UTC-3.0)
Plans Departing 135
Arriving 109
Stats Elevation 2,450 ft / 747 m (AMSL)
Location -16.632032° -49.220686°
Runways 1
Magnetic Variation 21.040° W
Sunrise 2018-05-26 09:38:09 UTC / 2018-05-26 06:38:09 Local
Sunset 2018-05-26 20:52:36 UTC / 2018-05-26 17:52:36 Local
Advertisement - Login to hide

Runways

ID Width Length Bearing (true) Bearing (mag) Surface Threshold Offset Overrun Length
14 148 ft / 45 m 8,208 ft / 2,502 m 120.42° 141.46° Asphalt 0 ft / 0 m 0 ft / 0 m
32 148 ft / 45 m 8,208 ft / 2,502 m 300.41° 321.45° Asphalt 980 ft / 299 m 0 ft / 0 m

Map

Weather


0- 5 10 15 20 25 30 35+ Temperature / ° C

Clouds and Precipitation
Forecast for 2018-05-26 18:00 UTC. Updated an hour ago

Ground ~20,000 ft ~40,000 ft Winds

METAR

SBGO 261800Z 09009KT 9999 SCT045 28/11 Q1018

TAF

TAF SBGO 261600Z 2618/2718 11007KT 8000 NSC TX27/2618Z TN15/2708Z BECMG 2622/2624 13005KT CAVOK BECMG 2714/2716 09007KT RMK PDB

Frequencies

Recorded 127.67 MHz ATIS
Tower 118.70 MHz GOIANIA TWR
Ground 121.70 MHz GND
Warning: Do not use this data for real-world aviation or navigation. No guarantee of current accuracy is given.